sensor_id;sensor_type;location;lat;lon;timestamp;pressure;altitude;pressure_sealevel;temperature;humidity
60465;BME280;46314;52.392;9.758;2024-03-17T00:01:33;101621.66;;;7.91;80.58
60465;BME280;46314;52.392;9.758;2024-03-17T00:04:00;101616.94;;;7.91;80.88
60465;BME280;46314;52.392;9.758;2024-03-17T00:06:25;101622.53;;;7.69;83.05
60465;BME280;46314;52.392;9.758;2024-03-17T00:08:51;101620.72;;;7.58;83.07
60465;BME280;46314;52.392;9.758;2024-03-17T00:11:16;101622.66;;;7.80;82.80
60465;BME280;46314;52.392;9.758;2024-03-17T00:13:42;101621.03;;;7.84;82.48
60465;BME280;46314;52.392;9.758;2024-03-17T00:16:07;101635.22;;;7.70;83.94
60465;BME280;46314;52.392;9.758;2024-03-17T00:18:33;101627.75;;;8.20;81.59
60465;BME280;46314;52.392;9.758;2024-03-17T00:21:03;101634.06;;;7.66;83.63
60465;BME280;46314;52.392;9.758;2024-03-17T00:23:28;101631.94;;;7.95;82.96
60465;BME280;46314;52.392;9.758;2024-03-17T00:25:54;101623.34;;;7.70;83.99
60465;BME280;46314;52.392;9.758;2024-03-17T00:28:20;101624.31;;;8.08;82.50
60465;BME280;46314;52.392;9.758;2024-03-17T00:30:45;101629.84;;;7.36;87.14
60465;BME280;46314;52.392;9.758;2024-03-17T00:33:11;101633.50;;;7.64;85.37
60465;BME280;46314;52.392;9.758;2024-03-17T00:35:36;101627.28;;;7.74;85.56
60465;BME280;46314;52.392;9.758;2024-03-17T00:38:03;101634.81;;;7.56;87.08
60465;BME280;46314;52.392;9.758;2024-03-17T00:40:29;101634.63;;;7.24;88.20
60465;BME280;46314;52.392;9.758;2024-03-17T00:42:54;101640.19;;;7.46;88.20
60465;BME280;46314;52.392;9.758;2024-03-17T00:45:21;101641.44;;;7.38;89.14
60465;BME280;46314;52.392;9.758;2024-03-17T00:47:46;101636.06;;;7.49;88.51
60465;BME280;46314;52.392;9.758;2024-03-17T00:50:12;101640.56;;;7.55;88.49
60465;BME280;46314;52.392;9.758;2024-03-17T00:52:38;101636.31;;;7.25;89.57
60465;BME280;46314;52.392;9.758;2024-03-17T00:55:05;101636.47;;;7.35;89.31
60465;BME280;46314;52.392;9.758;2024-03-17T00:57:31;101634.75;;;7.51;89.36
60465;BME280;46314;52.392;9.758;2024-03-17T00:59:56;101634.72;;;7.29;90.23
60465;BME280;46314;52.392;9.758;2024-03-17T01:02:22;101625.34;;;7.30;89.05
60465;BME280;46314;52.392;9.758;2024-03-17T01:04:47;101629.78;;;7.53;89.56
60465;BME280;46314;52.392;9.758;2024-03-17T01:07:13;101630.69;;;7.59;88.80
60465;BME280;46314;52.392;9.758;2024-03-17T01:09:38;101630.22;;;7.67;88.60
60465;BME280;46314;52.392;9.758;2024-03-17T01:12:05;101620.75;;;7.85;87.15
60465;BME280;46314;52.392;9.758;2024-03-17T01:14:31;101624.28;;;7.81;86.73
60465;BME280;46314;52.392;9.758;2024-03-17T01:16:59;101619.19;;;7.67;88.22
60465;BME280;46314;52.392;9.758;2024-03-17T01:19:24;101619.50;;;7.27;91.03
60465;BME280;46314;52.392;9.758;2024-03-17T01:21:50;101618.53;;;7.38;91.10
60465;BME280;46314;52.392;9.758;2024-03-17T01:24:16;101622.16;;;7.88;88.16
60465;BME280;46314;52.392;9.758;2024-03-17T01:26:42;101612.72;;;7.56;90.15
60465;BME280;46314;52.392;9.758;2024-03-17T01:29:09;101622.53;;;7.69;89.00
60465;BME280;46314;52.392;9.758;2024-03-17T01:31:35;101610.47;;;7.81;88.49
60465;BME280;46314;52.392;9.758;2024-03-17T01:34:00;101615.84;;;7.65;87.62
60465;BME280;46314;52.392;9.758;2024-03-17T01:36:26;101613.19;;;7.75;88.08
60465;BME280;46314;52.392;9.758;2024-03-17T01:38:52;101620.13;;;7.78;88.53
60465;BME280;46314;52.392;9.758;2024-03-17T01:41:17;101620.94;;;7.51;89.33
60465;BME280;46314;52.392;9.758;2024-03-17T01:43:43;101619.56;;;7.54;89.66
60465;BME280;46314;52.392;9.758;2024-03-17T01:46:12;101616.94;;;7.64;89.19
60465;BME280;46314;52.392;9.758;2024-03-17T01:48:38;101610.06;;;7.67;89.17
60465;BME280;46314;52.392;9.758;2024-03-17T01:51:04;101613.38;;;7.91;87.39
60465;BME280;46314;52.392;9.758;2024-03-17T01:53:31;101609.72;;;7.63;88.45
60465;BME280;46314;52.392;9.758;2024-03-17T01:55:57;101604.94;;;7.53;88.99
60465;BME280;46314;52.392;9.758;2024-03-17T01:58:25;101601.50;;;7.90;86.60
60465;BME280;46314;52.392;9.758;2024-03-17T02:00:50;101609.59;;;7.75;88.05
60465;BME280;46314;52.392;9.758;2024-03-17T02:03:17;101596.16;;;7.84;87.06
60465;BME280;46314;52.392;9.758;2024-03-17T02:05:43;101604.91;;;7.75;87.95
60465;BME280;46314;52.392;9.758;2024-03-17T02:08:10;101603.44;;;7.46;88.83
60465;BME280;46314;52.392;9.758;2024-03-17T02:10:37;101609.56;;;7.48;89.28
60465;BME280;46314;52.392;9.758;2024-03-17T02:13:03;101606.28;;;7.51;88.27
60465;BME280;46314;52.392;9.758;2024-03-17T02:15:29;101608.94;;;7.41;88.94
60465;BME280;46314;52.392;9.758;2024-03-17T02:17:55;101605.63;;;7.66;87.73
60465;BME280;46314;52.392;9.758;2024-03-17T02:20:22;101602.88;;;7.66;87.18
60465;BME280;46314;52.392;9.758;2024-03-17T02:22:49;101599.91;;;7.72;87.71
60465;BME280;46314;52.392;9.758;2024-03-17T02:25:14;101607.81;;;7.42;88.82
60465;BME280;46314;52.392;9.758;2024-03-17T02:27:40;101608.25;;;7.11;91.33
60465;BME280;46314;52.392;9.758;2024-03-17T02:30:06;101605.84;;;7.37;89.44
60465;BME280;46314;52.392;9.758;2024-03-17T02:32:31;101600.84;;;7.34;88.78
60465;BME280;46314;52.392;9.758;2024-03-17T02:34:57;101603.09;;;7.37;88.83
60465;BME280;46314;52.392;9.758;2024-03-17T02:37:22;101604.94;;;7.31;89.15
60465;BME280;46314;52.392;9.758;2024-03-17T02:39:49;101599.09;;;7.28;88.47
60465;BME280;46314;52.392;9.758;2024-03-17T02:42:15;101602.97;;;7.27;89.43
60465;BME280;46314;52.392;9.758;2024-03-17T02:44:40;101594.22;;;6.74;91.79
60465;BME280;46314;52.392;9.758;2024-03-17T02:47:06;101595.34;;;6.95;89.98
60465;BME280;46314;52.392;9.758;2024-03-17T02:49:32;101593.75;;;7.21;89.58
60465;BME280;46314;52.392;9.758;2024-03-17T02:51:58;101590.41;;;6.97;90.67
60465;BME280;46314;52.392;9.758;2024-03-17T02:54:23;101598.13;;;6.95;90.58
60465;BME280;46314;52.392;9.758;2024-03-17T02:56:50;101584.03;;;6.96;90.10
60465;BME280;46314;52.392;9.758;2024-03-17T02:59:16;101592.38;;;7.01;90.08
60465;BME280;46314;52.392;9.758;2024-03-17T03:01:41;101585.38;;;7.11;88.95
60465;BME280;46314;52.392;9.758;2024-03-17T03:04:07;101590.09;;;6.93;89.86
60465;BME280;46314;52.392;9.758;2024-03-17T03:06:33;101598.00;;;6.34;91.39
60465;BME280;46314;52.392;9.758;2024-03-17T03:08:58;101599.47;;;6.75;89.46
60465;BME280;46314;52.392;9.758;2024-03-17T03:11:24;101599.91;;;7.06;87.52
60465;BME280;46314;52.392;9.758;2024-03-17T03:13:51;101606.31;;;6.90;88.26
60465;BME280;46314;52.392;9.758;2024-03-17T03:16:17;101607.06;;;6.68;89.79
60465;BME280;46314;52.392;9.758;2024-03-17T03:18:42;101609.41;;;6.09;92.68
60465;BME280;46314;52.392;9.758;2024-03-17T03:21:08;101612.66;;;5.94;94.78
60465;BME280;46314;52.392;9.758;2024-03-17T03:23:34;101612.25;;;6.31;92.54
60465;BME280;46314;52.392;9.758;2024-03-17T03:26:00;101618.66;;;5.91;95.07
60465;BME280;46314;52.392;9.758;2024-03-17T03:28:27;101610.25;;;6.43;91.93
60465;BME280;46314;52.392;9.758;2024-03-17T03:30:54;101612.22;;;6.14;92.35
60465;BME280;46314;52.392;9.758;2024-03-17T03:33:20;101605.16;;;5.60;96.80
60465;BME280;46314;52.392;9.758;2024-03-17T03:35:45;101606.97;;;5.83;96.22
60465;BME280;46314;52.392;9.758;2024-03-17T03:38:11;101597.91;;;6.29;92.38
60465;BME280;46314;52.392;9.758;2024-03-17T03:40:36;101594.66;;;6.32;91.83
60465;BME280;46314;52.392;9.758;2024-03-17T03:43:02;101598.84;;;6.51;90.43
60465;BME280;46314;52.392;9.758;2024-03-17T03:45:28;101593.06;;;6.36;91.17
60465;BME280;46314;52.392;9.758;2024-03-17T03:47:55;101593.28;;;6.17;92.87
60465;BME280;46314;52.392;9.758;2024-03-17T03:50:21;101605.06;;;6.13;93.35
60465;BME280;46314;52.392;9.758;2024-03-17T03:52:47;101604.81;;;5.85;93.82
60465;BME280;46314;52.392;9.758;2024-03-17T03:55:15;101612.03;;;5.46;96.49
60465;BME280;46314;52.392;9.758;2024-03-17T03:57:41;101596.53;;;5.97;94.38
60465;BME280;46314;52.392;9.758;2024-03-17T04:00:07;101602.56;;;6.11;92.78
60465;BME280;46314;52.392;9.758;2024-03-17T04:02:32;101608.06;;;6.11;92.63
60465;BME280;46314;52.392;9.758;2024-03-17T04:04:59;101598.31;;;6.20;91.27
60465;BME280;46314;52.392;9.758;2024-03-17T04:07:25;101601.81;;;6.33;91.94
60465;BME280;46314;52.392;9.758;2024-03-17T04:09:50;101609.13;;;6.10;92.02
60465;BME280;46314;52.392;9.758;2024-03-17T04:12:16;101601.22;;;6.14;91.24
60465;BME280;46314;52.392;9.758;2024-03-17T04:14:41;101606.16;;;5.83;93.13
60465;BME280;46314;52.392;9.758;2024-03-17T04:17:07;101608.66;;;6.13;91.01
60465;BME280;46314;52.392;9.758;2024-03-17T04:19:32;101604.56;;;5.58;92.81
60465;BME280;46314;52.392;9.758;2024-03-17T04:21:59;101608.66;;;5.03;97.50
60465;BME280;46314;52.392;9.758;2024-03-17T04:24:25;101613.63;;;5.18;98.12
60465;BME280;46314;52.392;9.758;2024-03-17T04:26:50;101608.34;;;5.28;96.09
60465;BME280;46314;52.392;9.758;2024-03-17T04:29:16;101609.81;;;5.88;93.08
60465;BME280;46314;52.392;9.758;2024-03-17T04:31:41;101608.09;;;5.71;94.69
60465;BME280;46314;52.392;9.758;2024-03-17T04:34:07;101617.81;;;6.02;92.48
60465;BME280;46314;52.392;9.758;2024-03-17T04:36:33;101621.19;;;5.92;91.56
60465;BME280;46314;52.392;9.758;2024-03-17T04:38:59;101613.69;;;5.87;92.33
60465;BME280;46314;52.392;9.758;2024-03-17T04:41:25;101619.22;;;5.76;93.08
60465;BME280;46314;52.392;9.758;2024-03-17T04:43:50;101612.03;;;5.34;95.75
60465;BME280;46314;52.392;9.758;2024-03-17T04:46:16;101611.81;;;5.36;95.67
60465;BME280;46314;52.392;9.758;2024-03-17T04:48:41;101620.47;;;4.92;98.15
60465;BME280;46314;52.392;9.758;2024-03-17T04:51:07;101627.84;;;5.27;96.74
60465;BME280;46314;52.392;9.758;2024-03-17T04:53:32;101629.00;;;5.43;94.84
60465;BME280;46314;52.392;9.758;2024-03-17T04:56:03;101622.75;;;5.07;95.97
60465;BME280;46314;52.392;9.758;2024-03-17T04:58:30;101621.66;;;5.08;95.53
60465;BME280;46314;52.392;9.758;2024-03-17T05:00:55;101635.88;;;4.69;98.85
60465;BME280;46314;52.392;9.758;2024-03-17T05:03:21;101630.25;;;4.64;99.70
60465;BME280;46314;52.392;9.758;2024-03-17T05:05:47;101632.28;;;5.04;98.61
60465;BME280;46314;52.392;9.758;2024-03-17T05:08:12;101638.50;;;5.11;97.43
60465;BME280;46314;52.392;9.758;2024-03-17T05:10:38;101641.13;;;5.18;96.42
60465;BME280;46314;52.392;9.758;2024-03-17T05:13:05;101647.09;;;5.27;96.92
60465;BME280;46314;52.392;9.758;2024-03-17T05:15:30;101649.19;;;5.48;95.76
60465;BME280;46314;52.392;9.758;2024-03-17T05:17:56;101649.31;;;5.54;95.03
60465;BME280;46314;52.392;9.758;2024-03-17T05:20:21;101653.75;;;5.55;95.08
60465;BME280;46314;52.392;9.758;2024-03-17T05:22:49;101656.03;;;5.46;94.62
60465;BME280;46314;52.392;9.758;2024-03-17T05:25:14;101655.72;;;5.19;97.11
60465;BME280;46314;52.392;9.758;2024-03-17T05:27:40;101658.94;;;5.27;97.48
60465;BME280;46314;52.392;9.758;2024-03-17T05:30:08;101657.09;;;5.45;95.92
60465;BME280;46314;52.392;9.758;2024-03-17T05:32:33;101649.56;;;5.52;95.95
60465;BME280;46314;52.392;9.758;2024-03-17T05:34:59;101659.19;;;5.14;96.35
60465;BME280;46314;52.392;9.758;2024-03-17T05:37:24;101657.91;;;5.05;97.25
60465;BME280;46314;52.392;9.758;2024-03-17T05:39:50;101656.78;;;4.47;100.00
60465;BME280;46314;52.392;9.758;2024-03-17T05:42:15;101653.69;;;5.02;97.22
60465;BME280;46314;52.392;9.758;2024-03-17T05:44:41;101644.72;;;5.19;95.06
60465;BME280;46314;52.392;9.758;2024-03-17T05:47:08;101655.25;;;4.86;95.27
60465;BME280;46314;52.392;9.758;2024-03-17T05:49:33;101662.28;;;4.94;95.53
60465;BME280;46314;52.392;9.758;2024-03-17T05:51:59;101663.38;;;5.17;93.69
60465;BME280;46314;52.392;9.758;2024-03-17T05:54:24;101664.94;;;5.24;93.69
60465;BME280;46314;52.392;9.758;2024-03-17T05:56:50;101672.66;;;5.63;91.85
60465;BME280;46314;52.392;9.758;2024-03-17T05:59:15;101675.47;;;5.68;91.16
60465;BME280;46314;52.392;9.758;2024-03-17T06:01:41;101673.06;;;4.72;96.93
60465;BME280;46314;52.392;9.758;2024-03-17T06:04:08;101678.75;;;4.05;100.00
60465;BME280;46314;52.392;9.758;2024-03-17T06:06:33;101676.88;;;4.17;100.00
60465;BME280;46314;52.392;9.758;2024-03-17T06:08:59;101684.66;;;4.98;98.58
60465;BME280;46314;52.392;9.758;2024-03-17T06:11:24;101680.59;;;5.24;95.56
60465;BME280;46314;52.392;9.758;2024-03-17T06:13:50;101684.78;;;5.03;97.22
60465;BME280;46314;52.392;9.758;2024-03-17T06:16:15;101675.88;;;5.60;93.51
60465;BME280;46314;52.392;9.758;2024-03-17T06:18:41;101682.50;;;5.35;94.23
60465;BME280;46314;52.392;9.758;2024-03-17T06:21:07;101672.69;;;4.68;99.77
60465;BME280;46314;52.392;9.758;2024-03-17T06:23:33;101681.41;;;5.48;94.77
60465;BME280;46314;52.392;9.758;2024-03-17T06:25:58;101671.91;;;5.67;92.72
60465;BME280;46314;52.392;9.758;2024-03-17T06:28:24;101685.94;;;5.95;90.88
60465;BME280;46314;52.392;9.758;2024-03-17T06:30:56;101684.81;;;6.19;88.27
60465;BME280;46314;52.392;9.758;2024-03-17T06:33:22;101688.59;;;5.90;90.56
60465;BME280;46314;52.392;9.758;2024-03-17T06:35:48;101683.34;;;6.00;91.28
60465;BME280;46314;52.392;9.758;2024-03-17T06:38:15;101685.16;;;5.82;92.51
60465;BME280;46314;52.392;9.758;2024-03-17T06:40:41;101677.75;;;6.12;91.22
60465;BME280;46314;52.392;9.758;2024-03-17T06:43:07;101678.50;;;6.07;90.54
60465;BME280;46314;52.392;9.758;2024-03-17T06:45:32;101675.41;;;5.92;91.97
60465;BME280;46314;52.392;9.758;2024-03-17T06:47:58;101674.31;;;6.50;87.44
60465;BME280;46314;52.392;9.758;2024-03-17T06:50:24;101674.25;;;6.62;86.59
60465;BME280;46314;52.392;9.758;2024-03-17T06:52:50;101666.72;;;6.40;88.12
60465;BME280;46314;52.392;9.758;2024-03-17T06:55:17;101674.38;;;6.21;89.70
60465;BME280;46314;52.392;9.758;2024-03-17T06:57:42;101669.97;;;6.37;89.97
60465;BME280;46314;52.392;9.758;2024-03-17T07:00:08;101670.06;;;6.42;90.64
60465;BME280;46314;52.392;9.758;2024-03-17T07:02:34;101654.38;;;6.60;89.94
60465;BME280;46314;52.392;9.758;2024-03-17T07:05:00;101656.94;;;6.83;87.96
60465;BME280;46314;52.392;9.758;2024-03-17T07:07:26;101656.50;;;7.09;85.76
60465;BME280;46314;52.392;9.758;2024-03-17T07:09:52;101660.44;;;6.96;87.19
60465;BME280;46314;52.392;9.758;2024-03-17T07:12:19;101655.09;;;6.89;88.22
60465;BME280;46314;52.392;9.758;2024-03-17T07:14:44;101655.19;;;6.94;88.17
60465;BME280;46314;52.392;9.758;2024-03-17T07:17:10;101660.19;;;7.14;87.28
60465;BME280;46314;52.392;9.758;2024-03-17T07:19:36;101652.38;;;7.28;86.83
60465;BME280;46314;52.392;9.758;2024-03-17T07:22:01;101653.72;;;7.09;87.38
60465;BME280;46314;52.392;9.758;2024-03-17T07:24:27;101650.47;;;7.12;88.51
60465;BME280;46314;52.392;9.758;2024-03-17T07:26:52;101660.06;;;7.26;88.48
60465;BME280;46314;52.392;9.758;2024-03-17T07:29:19;101651.16;;;7.41;86.63
60465;BME280;46314;52.392;9.758;2024-03-17T07:31:45;101651.78;;;7.26;88.53
60465;BME280;46314;52.392;9.758;2024-03-17T07:34:10;101650.72;;;7.71;85.86
60465;BME280;46314;52.392;9.758;2024-03-17T07:36:36;101661.88;;;7.82;85.72
60465;BME280;46314;52.392;9.758;2024-03-17T07:39:02;101659.38;;;7.58;87.17
60465;BME280;46314;52.392;9.758;2024-03-17T07:41:27;101657.81;;;7.89;85.82
60465;BME280;46314;52.392;9.758;2024-03-17T07:43:53;101657.13;;;7.77;87.15
60465;BME280;46314;52.392;9.758;2024-03-17T07:46:20;101658.97;;;8.21;84.25
60465;BME280;46314;52.392;9.758;2024-03-17T07:48:45;101658.31;;;8.36;83.87
60465;BME280;46314;52.392;9.758;2024-03-17T07:51:13;101665.41;;;8.53;83.21
60465;BME280;46314;52.392;9.758;2024-03-17T07:53:39;101670.50;;;8.67;82.90
60465;BME280;46314;52.392;9.758;2024-03-17T07:56:06;101668.16;;;7.99;88.12
60465;BME280;46314;52.392;9.758;2024-03-17T07:58:33;101660.19;;;7.81;89.13
60465;BME280;46314;52.392;9.758;2024-03-17T08:00:59;101672.00;;;7.98;88.34
60465;BME280;46314;52.392;9.758;2024-03-17T08:03:26;101673.06;;;7.70;89.89
60465;BME280;46314;52.392;9.758;2024-03-17T08:05:51;101671.00;;;7.38;92.23
60465;BME280;46314;52.392;9.758;2024-03-17T08:08:17;101665.78;;;7.86;89.22
60465;BME280;46314;52.392;9.758;2024-03-17T08:10:43;101671.78;;;7.77;89.80
60465;BME280;46314;52.392;9.758;2024-03-17T08:13:08;101665.88;;;8.45;87.67
60465;BME280;46314;52.392;9.758;2024-03-17T08:15:34;101665.22;;;7.84;88.13
60465;BME280;46314;52.392;9.758;2024-03-17T08:17:59;101661.19;;;7.69;89.49
60465;BME280;46314;52.392;9.758;2024-03-17T08:20:26;101662.47;;;7.39;91.09
60465;BME280;46314;52.392;9.758;2024-03-17T08:22:52;101658.25;;;8.03;89.04
60465;BME280;46314;52.392;9.758;2024-03-17T08:25:17;101656.97;;;8.11;87.55
60465;BME280;46314;52.392;9.758;2024-03-17T08:27:43;101658.94;;;7.88;88.55
60465;BME280;46314;52.392;9.758;2024-03-17T08:30:09;101650.22;;;8.88;85.14
60465;BME280;46314;52.392;9.758;2024-03-17T08:32:35;101653.91;;;9.52;80.34
60465;BME280;46314;52.392;9.758;2024-03-17T08:35:00;101657.94;;;9.87;78.35
60465;BME280;46314;52.392;9.758;2024-03-17T08:37:27;101653.34;;;9.50;78.89
60465;BME280;46314;52.392;9.758;2024-03-17T08:39:53;101647.78;;;8.97;81.26
60465;BME280;46314;52.392;9.758;2024-03-17T08:42:18;101640.97;;;8.73;82.24
60465;BME280;46314;52.392;9.758;2024-03-17T08:44:45;101644.59;;;9.79;77.26
60465;BME280;46314;52.392;9.758;2024-03-17T08:47:11;101638.13;;;9.58;78.35
60465;BME280;46314;52.392;9.758;2024-03-17T08:49:36;101634.75;;;10.39;74.29
60465;BME280;46314;52.392;9.758;2024-03-17T08:52:02;101642.91;;;9.15;79.88
60465;BME280;46314;52.392;9.758;2024-03-17T08:54:29;101643.78;;;9.83;74.74
60465;BME280;46314;52.392;9.758;2024-03-17T08:56:54;101639.09;;;9.26;77.07
60465;BME280;46314;52.392;9.758;2024-03-17T08:59:20;101632.38;;;8.74;79.81
60465;BME280;46314;52.392;9.758;2024-03-17T09:01:45;101640.69;;;9.70;73.36
60465;BME280;46314;52.392;9.758;2024-03-17T09:04:11;101635.13;;;9.64;74.76
60465;BME280;46314;52.392;9.758;2024-03-17T09:06:37;101638.53;;;8.81;79.83
60465;BME280;46314;52.392;9.758;2024-03-17T09:09:02;101644.34;;;9.22;78.44
60465;BME280;46314;52.392;9.758;2024-03-17T09:11:29;101640.78;;;8.89;77.76
60465;BME280;46314;52.392;9.758;2024-03-17T09:13:55;101643.72;;;8.73;78.64
60465;BME280;46314;52.392;9.758;2024-03-17T09:16:20;101643.03;;;10.14;73.90
60465;BME280;46314;52.392;9.758;2024-03-17T09:18:46;101641.91;;;10.10;73.79
60465;BME280;46314;52.392;9.758;2024-03-17T09:21:11;101649.53;;;9.66;76.16
60465;BME280;46314;52.392;9.758;2024-03-17T09:23:37;101640.63;;;9.54;75.39
60465;BME280;46314;52.392;9.758;2024-03-17T09:26:04;101645.81;;;8.93;77.54
60465;BME280;46314;52.392;9.758;2024-03-17T09:28:32;101644.41;;;9.33;74.42
60465;BME280;46314;52.392;9.758;2024-03-17T09:30:58;101647.22;;;10.32;70.20
60465;BME280;46314;52.392;9.758;2024-03-17T09:33:25;101641.41;;;10.69;68.65
60465;BME280;46314;52.392;9.758;2024-03-17T09:35:55;101645.94;;;9.71;70.74
60465;BME280;46314;52.392;9.758;2024-03-17T09:38:21;101643.38;;;10.38;70.97
60465;BME280;46314;52.392;9.758;2024-03-17T09:40:47;101643.63;;;11.03;68.73
60465;BME280;46314;52.392;9.758;2024-03-17T09:43:13;101648.59;;;11.87;65.92
60465;BME280;46314;52.392;9.758;2024-03-17T09:45:39;101643.00;;;11.27;65.35
60465;BME280;46314;52.392;9.758;2024-03-17T09:48:06;101649.63;;;11.41;66.57
60465;BME280;46314;52.392;9.758;2024-03-17T09:50:33;101659.13;;;12.00;64.38
60465;BME280;46314;52.392;9.758;2024-03-17T09:52:59;101657.63;;;11.53;64.65
60465;BME280;46314;52.392;9.758;2024-03-17T09:55:25;101653.38;;;11.76;63.38
60465;BME280;46314;52.392;9.758;2024-03-17T09:57:51;101656.38;;;11.04;65.00
60465;BME280;46314;52.392;9.758;2024-03-17T10:00:16;101652.50;;;11.05;66.96
60465;BME280;46314;52.392;9.758;2024-03-17T10:02:44;101653.00;;;10.20;67.58
60465;BME280;46314;52.392;9.758;2024-03-17T10:05:20;101641.44;;;11.75;64.15
60465;BME280;46314;52.392;9.758;2024-03-17T10:07:45;101653.34;;;10.39;67.70
60465;BME280;46314;52.392;9.758;2024-03-17T10:10:12;101647.81;;;10.49;68.82
60465;BME280;46314;52.392;9.758;2024-03-17T10:12:38;101640.78;;;10.05;68.93
60465;BME280;46314;52.392;9.758;2024-03-17T10:15:04;101634.47;;;10.41;68.59
60465;BME280;46314;52.392;9.758;2024-03-17T10:17:31;101633.88;;;11.11;66.83
60465;BME280;46314;52.392;9.758;2024-03-17T10:20:14;101634.94;;;11.30;64.73
60465;BME280;46314;52.392;9.758;2024-03-17T10:22:40;101631.81;;;11.52;63.01
60465;BME280;46314;52.392;9.758;2024-03-17T10:25:08;101638.28;;;12.72;60.25
60465;BME280;46314;52.392;9.758;2024-03-17T10:27:35;101640.34;;;12.61;59.61
60465;BME280;46314;52.392;9.758;2024-03-17T10:30:00;101638.63;;;12.30;60.10
60465;BME280;46314;52.392;9.758;2024-03-17T10:32:26;101647.97;;;12.05;58.87
60465;BME280;46314;52.392;9.758;2024-03-17T10:34:52;101635.56;;;11.82;59.67
60465;BME280;46314;52.392;9.758;2024-03-17T10:37:20;101644.44;;;11.95;58.59
60465;BME280;46314;52.392;9.758;2024-03-17T10:39:46;101646.06;;;11.96;58.51
60465;BME280;46314;52.392;9.758;2024-03-17T10:42:12;101642.47;;;11.25;58.45
60465;BME280;46314;52.392;9.758;2024-03-17T10:44:39;101644.88;;;12.12;56.05
60465;BME280;46314;52.392;9.758;2024-03-17T10:47:06;101645.00;;;11.81;56.76
60465;BME280;46314;52.392;9.758;2024-03-17T10:49:33;101649.84;;;12.15;55.70
60465;BME280;46314;52.392;9.758;2024-03-17T10:52:00;101648.03;;;12.40;55.63
60465;BME280;46314;52.392;9.758;2024-03-17T10:54:28;101650.25;;;11.12;59.16
60465;BME280;46314;52.392;9.758;2024-03-17T10:56:55;101638.59;;;11.10;60.05
60465;BME280;46314;52.392;9.758;2024-03-17T10:59:24;101636.69;;;10.85;59.44
60465;BME280;46314;52.392;9.758;2024-03-17T11:01:54;101625.53;;;11.11;58.26
60465;BME280;46314;52.392;9.758;2024-03-17T11:04:20;101630.63;;;11.69;57.09
60465;BME280;46314;52.392;9.758;2024-03-17T11:06:45;101635.28;;;11.13;58.23
60465;BME280;46314;52.392;9.758;2024-03-17T11:09:14;101622.63;;;12.17;56.25
60465;BME280;46314;52.392;9.758;2024-03-17T11:11:42;101630.69;;;11.53;57.30
60465;BME280;46314;52.392;9.758;2024-03-17T11:14:17;101620.34;;;10.58;59.92
60465;BME280;46314;52.392;9.758;2024-03-17T11:16:43;101615.75;;;11.39;57.82
60465;BME280;46314;52.392;9.758;2024-03-17T11:19:14;101618.28;;;11.30;57.39
60465;BME280;46314;52.392;9.758;2024-03-17T11:21:40;101613.91;;;11.79;57.23
60465;BME280;46314;52.392;9.758;2024-03-17T11:24:06;101616.81;;;12.48;56.85
60465;BME280;46314;52.392;9.758;2024-03-17T11:26:33;101615.06;;;11.68;58.49
60465;BME280;46314;52.392;9.758;2024-03-17T11:29:00;101615.78;;;11.94;57.66
60465;BME280;46314;52.392;9.758;2024-03-17T11:31:43;101615.88;;;13.64;54.96
60465;BME280;46314;52.392;9.758;2024-03-17T11:34:27;101608.69;;;12.86;55.52
60465;BME280;46314;52.392;9.758;2024-03-17T11:36:53;101614.69;;;13.71;54.03
60465;BME280;46314;52.392;9.758;2024-03-17T11:39:18;101612.50;;;14.25;51.79
60465;BME280;46314;52.392;9.758;2024-03-17T11:41:45;101606.31;;;12.69;55.47
60465;BME280;46314;52.392;9.758;2024-03-17T11:44:18;101609.97;;;13.23;54.05
60465;BME280;46314;52.392;9.758;2024-03-17T11:46:51;101598.50;;;12.02;57.91
60465;BME280;46314;52.392;9.758;2024-03-17T11:49:18;101603.28;;;11.31;59.92
60465;BME280;46314;52.392;9.758;2024-03-17T11:51:45;101594.34;;;12.00;58.03
60465;BME280;46314;52.392;9.758;2024-03-17T11:54:13;101590.59;;;12.20;59.24
60465;BME280;46314;52.392;9.758;2024-03-17T11:56:40;101588.47;;;12.41;56.29
60465;BME280;46314;52.392;9.758;2024-03-17T11:59:06;101585.75;;;12.36;57.11
60465;BME280;46314;52.392;9.758;2024-03-17T12:01:33;101594.06;;;12.70;56.30
60465;BME280;46314;52.392;9.758;2024-03-17T12:03:58;101589.94;;;11.33;59.39
60465;BME280;46314;52.392;9.758;2024-03-17T12:06:24;101591.91;;;11.23;59.74
60465;BME280;46314;52.392;9.758;2024-03-17T12:08:49;101587.25;;;10.97;60.31
60465;BME280;46314;52.392;9.758;2024-03-17T12:11:17;101585.59;;;11.07;60.04
60465;BME280;46314;52.392;9.758;2024-03-17T12:13:42;101582.03;;;11.61;59.19
60465;BME280;46314;52.392;9.758;2024-03-17T12:16:11;101572.00;;;11.00;60.49
60465;BME280;46314;52.392;9.758;2024-03-17T12:18:38;101565.50;;;11.30;60.20
60465;BME280;46314;52.392;9.758;2024-03-17T12:21:04;101565.63;;;11.65;58.94
60465;BME280;46314;52.392;9.758;2024-03-17T12:23:29;101562.59;;;12.99;56.30
60465;BME280;46314;52.392;9.758;2024-03-17T12:25:55;101558.72;;;12.71;56.01
60465;BME280;46314;52.392;9.758;2024-03-17T12:28:21;101557.25;;;11.70;57.31
60465;BME280;46314;52.392;9.758;2024-03-17T12:30:47;101554.69;;;11.24;58.75
60465;BME280;46314;52.392;9.758;2024-03-17T12:33:12;101547.81;;;12.16;57.08
60465;BME280;46314;52.392;9.758;2024-03-17T12:35:40;101540.44;;;12.59;55.88
60465;BME280;46314;52.392;9.758;2024-03-17T12:38:20;101543.69;;;11.03;59.59
60465;BME280;46314;52.392;9.758;2024-03-17T12:40:46;101531.78;;;12.37;56.28
60465;BME280;46314;52.392;9.758;2024-03-17T12:43:12;101540.72;;;12.63;53.61
60465;BME280;46314;52.392;9.758;2024-03-17T12:45:38;101533.28;;;12.19;55.02
60465;BME280;46314;52.392;9.758;2024-03-17T12:48:09;101542.44;;;12.24;55.17
60465;BME280;46314;52.392;9.758;2024-03-17T12:50:45;101538.78;;;11.40;57.07
60465;BME280;46314;52.392;9.758;2024-03-17T12:53:15;101537.72;;;12.25;55.74